createdAt,value
2019-03-25T00:01:21.369Z,54.20
2019-03-25T00:02:57.762Z,53.90
2019-03-25T00:04:33.954Z,54.30
2019-03-25T00:06:10.242Z,54.20
2019-03-25T00:07:46.528Z,53.90
2019-03-25T00:09:23.951Z,53.80
2019-03-25T00:11:00.314Z,53.90
2019-03-25T00:12:38.139Z,53.70
2019-03-25T00:14:14.423Z,55.40
2019-03-25T00:15:50.854Z,56.10
2019-03-25T00:17:27.239Z,57.20
2019-03-25T00:19:03.783Z,58.60
2019-03-25T00:20:40.253Z,60.30
2019-03-25T00:22:16.631Z,65.20
2019-03-25T00:23:54.642Z,64.20
2019-03-25T00:25:31.035Z,64.60
2019-03-25T00:27:07.307Z,64.80
2019-03-25T00:28:43.742Z,65.20
2019-03-25T00:30:20.238Z,66.10
2019-03-25T00:31:56.567Z,66.50
2019-03-25T00:33:32.979Z,66.70
2019-03-25T00:35:09.362Z,65.60
2019-03-25T00:36:45.707Z,63.60
2019-03-25T00:38:22.128Z,63.30
2019-03-25T00:39:59.601Z,63.80
2019-03-25T00:41:35.925Z,63.80
2019-03-25T00:43:12.158Z,63.80
2019-03-25T00:44:48.467Z,62.80
2019-03-25T00:46:24.862Z,61.60
2019-03-25T00:48:01.525Z,60.70
2019-03-25T00:49:37.872Z,60.30
2019-03-25T00:51:14.094Z,60.10
2019-03-25T00:52:50.121Z,59.90
2019-03-25T00:54:26.337Z,59.80
2019-03-25T00:56:02.710Z,59.50
2019-03-25T00:57:39.085Z,59.10
2019-03-25T00:59:15.187Z,58.60
2019-03-25T01:00:51.534Z,58.20
2019-03-25T01:02:27.925Z,58.00
2019-03-25T01:04:04.554Z,57.80
2019-03-25T01:05:40.871Z,57.70
2019-03-25T01:07:17.310Z,57.60
2019-03-25T01:08:53.438Z,57.30
2019-03-25T01:10:30.390Z,57.10
2019-03-25T01:12:06.769Z,57.40
2019-03-25T01:13:44.673Z,57.70
2019-03-25T01:15:20.870Z,58.30
2019-03-25T01:16:57.093Z,58.10
2019-03-25T01:18:33.209Z,57.80
2019-03-25T01:20:10.134Z,58.30
2019-03-25T01:21:46.234Z,58.00
2019-03-25T01:23:22.463Z,58.40
2019-03-25T01:25:02.281Z,58.60
2019-03-25T01:26:36.484Z,59.40
2019-03-25T01:28:12.706Z,59.40
2019-03-25T01:29:48.863Z,59.30
2019-03-25T01:31:25.024Z,58.30
2019-03-25T01:33:01.244Z,57.40
2019-03-25T01:34:37.379Z,57.20
2019-03-25T01:36:13.443Z,56.90
2019-03-25T01:37:49.595Z,56.90
2019-03-25T01:39:25.828Z,57.20
2019-03-25T01:41:02.052Z,57.70
2019-03-25T01:42:38.309Z,59.00
2019-03-25T01:44:14.411Z,59.50
2019-03-25T01:45:50.733Z,59.80
2019-03-25T01:47:27.033Z,60.30
2019-03-25T01:49:04.542Z,60.20
2019-03-25T01:50:40.694Z,59.70
2019-03-25T01:52:16.686Z,59.60
2019-03-25T01:53:54.114Z,59.60
2019-03-25T01:55:30.199Z,59.80
2019-03-25T01:57:06.398Z,59.70
2019-03-25T01:58:42.520Z,59.40
2019-03-25T02:00:18.837Z,59.30
2019-03-25T02:01:55.129Z,59.00
2019-03-25T02:03:31.495Z,59.20
2019-03-25T02:05:08.191Z,59.30
2019-03-25T02:06:45.689Z,59.50
2019-03-25T02:08:22.173Z,59.40
2019-03-25T02:09:58.239Z,59.30
2019-03-25T02:11:34.435Z,59.10
2019-03-25T02:13:10.667Z,58.90
2019-03-25T02:14:46.907Z,58.60
2019-03-25T02:16:23.163Z,58.40
2019-03-25T02:17:59.461Z,58.50
2019-03-25T02:19:35.780Z,58.20
2019-03-25T02:21:11.907Z,57.90
2019-03-25T02:22:48.137Z,57.70
2019-03-25T02:24:24.367Z,57.90
2019-03-25T02:26:00.569Z,57.80
2019-03-25T02:27:36.726Z,57.60
2019-03-25T02:29:13.021Z,57.30
2019-03-25T02:30:49.641Z,56.50
2019-03-25T02:32:25.713Z,56.40
2019-03-25T02:34:03.129Z,56.40
2019-03-25T02:35:39.354Z,56.20
2019-03-25T02:37:15.677Z,56.20
2019-03-25T02:38:51.830Z,56.80
2019-03-25T02:40:28.001Z,56.50
2019-03-25T02:42:04.245Z,56.50
2019-03-25T02:43:40.437Z,56.70
2019-03-25T02:45:16.564Z,56.60
2019-03-25T02:46:52.787Z,56.70
2019-03-25T02:48:28.858Z,56.90
2019-03-25T02:50:06.760Z,57.20
2019-03-25T02:51:42.885Z,57.10
2019-03-25T02:53:19.115Z,57.40
2019-03-25T02:54:55.358Z,57.40
2019-03-25T02:56:31.513Z,57.90
2019-03-25T02:58:07.741Z,58.80
2019-03-25T02:59:43.971Z,59.50
2019-03-25T03:01:20.209Z,59.60
2019-03-25T03:02:56.483Z,60.50
2019-03-25T03:04:32.783Z,61.50
2019-03-25T03:06:09.126Z,61.10
2019-03-25T03:07:45.268Z,60.50
2019-03-25T03:09:21.354Z,60.30
2019-03-25T03:10:57.573Z,61.90
2019-03-25T03:12:33.836Z,63.80
2019-03-25T03:14:10.102Z,66.40
2019-03-25T03:15:46.291Z,65.90
2019-03-25T03:17:22.652Z,69.30
2019-03-25T03:18:58.649Z,70.60
2019-03-25T03:20:34.957Z,70.70
2019-03-25T03:22:11.194Z,71.60
2019-03-25T03:23:47.373Z,71.70
2019-03-25T03:25:23.681Z,71.80
2019-03-25T03:26:59.808Z,70.80
2019-03-25T03:28:36.001Z,68.50
2019-03-25T03:30:12.327Z,66.70
2019-03-25T03:31:48.622Z,65.70
2019-03-25T03:33:24.608Z,65.10
2019-03-25T03:35:01.120Z,65.20
2019-03-25T03:36:37.293Z,65.60
2019-03-25T03:38:13.447Z,65.00
2019-03-25T03:39:49.666Z,64.90
2019-03-25T03:41:26.010Z,65.10
2019-03-25T03:43:02.050Z,65.40
2019-03-25T03:44:38.217Z,65.70
2019-03-25T03:46:14.525Z,66.20
2019-03-25T03:47:50.694Z,66.80
2019-03-25T03:49:26.988Z,67.40
2019-03-25T03:51:03.310Z,67.50
2019-03-25T03:52:40.210Z,68.60
2019-03-25T03:54:16.711Z,69.30
2019-03-25T03:55:53.178Z,69.00
2019-03-25T03:57:30.659Z,69.20
2019-03-25T03:59:06.792Z,68.90
2019-03-25T04:00:43.092Z,69.00
2019-03-25T04:02:19.190Z,69.50
2019-03-25T04:03:55.321Z,70.00
2019-03-25T04:05:31.627Z,70.50
2019-03-25T04:07:07.867Z,71.40
2019-03-25T04:08:44.032Z,72.40
2019-03-25T04:10:20.259Z,73.40
2019-03-25T04:11:56.424Z,73.80
2019-03-25T04:13:32.631Z,74.20
2019-03-25T04:15:09.102Z,74.80
2019-03-25T04:16:45.257Z,76.20
2019-03-25T04:18:21.423Z,76.60
2019-03-25T04:19:57.608Z,77.20
2019-03-25T04:21:33.726Z,77.60
2019-03-25T04:23:10.057Z,78.00
2019-03-25T04:24:46.203Z,77.70
2019-03-25T04:26:29.057Z,77.60
2019-03-25T04:28:00.339Z,77.80
2019-03-25T04:29:36.509Z,78.90
2019-03-25T04:31:12.718Z,79.30
2019-03-25T04:32:48.889Z,79.60
2019-03-25T04:34:25.010Z,80.20
2019-03-25T04:36:01.366Z,80.10
2019-03-25T04:37:37.640Z,80.30
2019-03-25T04:39:13.820Z,80.30
2019-03-25T04:40:49.922Z,80.50
2019-03-25T04:42:26.153Z,80.40
2019-03-25T04:44:02.094Z,80.60
2019-03-25T04:45:38.261Z,80.70
2019-03-25T04:47:14.135Z,80.90
2019-03-25T04:48:50.265Z,80.20
2019-03-25T04:50:26.519Z,79.80
2019-03-25T04:52:02.713Z,79.50
2019-03-25T04:53:38.831Z,79.00
2019-03-25T04:55:15.067Z,79.00
2019-03-25T04:56:51.230Z,79.40
2019-03-25T04:58:27.358Z,78.50
2019-03-25T05:00:03.663Z,78.80
2019-03-25T05:01:39.883Z,78.80
2019-03-25T05:03:17.291Z,78.90
2019-03-25T05:04:53.391Z,78.70
2019-03-25T05:06:29.488Z,78.10
2019-03-25T05:08:05.799Z,77.30
2019-03-25T05:09:42.034Z,76.20
2019-03-25T05:11:18.268Z,75.10
2019-03-25T05:12:55.553Z,74.40
2019-03-25T05:14:31.815Z,74.50
2019-03-25T05:16:07.980Z,75.00
2019-03-25T05:17:44.134Z,75.50
2019-03-25T05:19:20.239Z,74.80
2019-03-25T05:20:56.410Z,73.50
2019-03-25T05:22:32.577Z,72.80
2019-03-25T05:24:08.737Z,71.10
2019-03-25T05:25:44.828Z,68.80
2019-03-25T05:27:20.912Z,66.00
2019-03-25T05:28:56.711Z,63.80
2019-03-25T05:30:32.947Z,61.90
2019-03-25T05:32:09.048Z,59.70
2019-03-25T05:33:45.220Z,58.10
2019-03-25T05:35:21.101Z,56.70
2019-03-25T05:36:57.192Z,56.30
2019-03-25T05:38:33.295Z,57.00
2019-03-25T05:40:10.129Z,57.40
2019-03-25T05:41:46.120Z,58.30
2019-03-25T05:43:22.255Z,59.00
2019-03-25T05:44:58.348Z,59.90
2019-03-25T05:46:34.849Z,61.00
2019-03-25T05:48:11.022Z,62.20
2019-03-25T05:49:47.154Z,63.10
2019-03-25T05:51:23.480Z,63.10
2019-03-25T05:52:59.348Z,63.60
2019-03-25T05:54:35.569Z,64.10
2019-03-25T05:56:11.663Z,64.70
2019-03-25T05:57:47.741Z,65.10
2019-03-25T05:59:24.796Z,65.60
2019-03-25T06:01:01.129Z,66.10
2019-03-25T06:02:37.285Z,66.40
2019-03-25T06:04:13.451Z,66.70
2019-03-25T06:05:49.568Z,66.70
2019-03-25T06:07:25.599Z,67.00
2019-03-25T06:09:01.767Z,67.30
2019-03-25T06:10:38.071Z,67.70
2019-03-25T06:12:14.795Z,67.70
2019-03-25T06:13:50.946Z,68.50
2019-03-25T06:15:27.282Z,68.70
2019-03-25T06:17:03.615Z,69.10
2019-03-25T06:18:39.779Z,68.80
2019-03-25T06:20:16.181Z,68.60
2019-03-25T06:21:52.375Z,68.60
2019-03-25T06:23:28.593Z,68.70
2019-03-25T06:25:07.048Z,68.90
2019-03-25T06:26:43.199Z,69.20
2019-03-25T06:28:19.366Z,68.90
2019-03-25T06:29:55.661Z,68.10
2019-03-25T06:31:31.890Z,67.50
2019-03-25T06:33:12.563Z,67.30
2019-03-25T06:34:46.117Z,66.90
2019-03-25T06:36:22.355Z,66.10
2019-03-25T06:37:58.640Z,65.60
2019-03-25T06:39:34.812Z,65.20
2019-03-25T06:41:11.267Z,64.50
2019-03-25T06:42:47.583Z,64.40
2019-03-25T06:44:23.883Z,64.50
2019-03-25T06:46:00.042Z,64.30
2019-03-25T06:47:36.026Z,63.80
2019-03-25T06:49:12.191Z,63.60
2019-03-25T06:50:48.367Z,63.60
2019-03-25T06:52:24.632Z,63.20
2019-03-25T06:54:00.863Z,63.50
2019-03-25T06:55:36.994Z,63.20
2019-03-25T06:57:13.236Z,62.70
2019-03-25T06:58:49.508Z,62.70
2019-03-25T07:00:25.904Z,63.20
2019-03-25T07:02:05.168Z,63.40
2019-03-25T07:03:41.331Z,64.00
2019-03-25T07:05:17.629Z,64.50
2019-03-25T07:06:53.797Z,64.80
2019-03-25T07:08:32.016Z,65.40
2019-03-25T07:10:10.115Z,65.40
2019-03-25T07:11:46.452Z,65.60
2019-03-25T07:13:22.584Z,66.10
2019-03-25T07:14:58.890Z,66.20
2019-03-25T07:16:35.102Z,66.50
2019-03-25T07:18:11.396Z,66.60
2019-03-25T07:19:47.706Z,67.10
2019-03-25T07:21:23.864Z,67.50
2019-03-25T07:23:00.132Z,67.30
2019-03-25T07:24:36.285Z,67.60
2019-03-25T07:26:12.495Z,68.00
2019-03-25T07:27:48.709Z,67.70
2019-03-25T07:29:24.776Z,67.30
2019-03-25T07:31:01.132Z,66.80
2019-03-25T07:32:37.366Z,67.50
2019-03-25T07:34:13.594Z,67.30
2019-03-25T07:35:49.824Z,67.00
2019-03-25T07:37:25.999Z,66.50
2019-03-25T07:39:02.060Z,67.20
2019-03-25T07:40:38.383Z,66.30
2019-03-25T07:42:14.515Z,65.70
2019-03-25T07:43:50.747Z,64.70
2019-03-25T07:45:26.955Z,64.80
2019-03-25T07:47:04.336Z,64.60
2019-03-25T07:48:40.494Z,64.50
2019-03-25T07:50:16.696Z,63.90
2019-03-25T07:51:52.863Z,63.60
2019-03-25T07:53:29.023Z,63.00
2019-03-25T07:55:07.541Z,61.60
2019-03-25T07:56:43.735Z,60.30
2019-03-25T07:58:20.042Z,60.00
2019-03-25T07:59:56.314Z,59.90
2019-03-25T08:01:32.519Z,60.20
2019-03-25T08:03:08.742Z,60.50
2019-03-25T08:04:45.133Z,61.40
2019-03-25T08:06:21.408Z,61.40
2019-03-25T08:07:57.808Z,61.00
2019-03-25T08:09:33.982Z,60.50
2019-03-25T08:11:10.210Z,60.40
2019-03-25T08:12:46.570Z,60.50
2019-03-25T08:14:24.167Z,60.60
2019-03-25T08:16:00.717Z,60.10
2019-03-25T08:17:38.277Z,60.00
2019-03-25T08:19:14.407Z,60.90
2019-03-25T08:20:50.654Z,59.60
2019-03-25T08:22:26.911Z,59.40
2019-03-25T08:24:03.013Z,59.30
2019-03-25T08:25:39.325Z,59.50
2019-03-25T08:27:15.629Z,59.30
2019-03-25T08:28:52.035Z,59.00
2019-03-25T08:30:28.440Z,59.50
2019-03-25T08:32:04.687Z,59.00
2019-03-25T08:33:40.867Z,58.70
2019-03-25T08:35:17.183Z,58.90
2019-03-25T08:36:53.602Z,58.70
2019-03-25T08:38:29.952Z,58.50
2019-03-25T08:40:09.839Z,58.50
2019-03-25T08:41:46.115Z,58.70
2019-03-25T08:43:22.368Z,59.30
2019-03-25T08:44:58.695Z,60.00
2019-03-25T08:46:37.475Z,59.50
2019-03-25T08:48:13.783Z,60.20
2019-03-25T08:49:50.012Z,60.90
2019-03-25T08:51:26.154Z,60.00
2019-03-25T08:53:02.483Z,59.50
2019-03-25T08:54:38.715Z,60.00
2019-03-25T08:56:15.020Z,59.60
2019-03-25T08:57:51.328Z,59.20
2019-03-25T08:59:27.569Z,58.80
2019-03-25T09:01:03.933Z,57.80
2019-03-25T09:02:40.106Z,56.30
2019-03-25T09:04:16.537Z,55.90
2019-03-25T09:05:52.705Z,55.00
2019-03-25T09:07:28.805Z,54.30
2019-03-25T09:09:07.594Z,52.60
2019-03-25T09:10:43.841Z,51.70
2019-03-25T09:12:20.118Z,50.50
2019-03-25T09:13:55.950Z,50.40
2019-03-25T09:15:32.145Z,50.60
2019-03-25T09:17:08.460Z,50.00
2019-03-25T09:18:44.698Z,49.00
2019-03-25T09:20:20.999Z,48.60
2019-03-25T09:21:57.265Z,48.10
2019-03-25T09:23:33.504Z,47.60
2019-03-25T09:25:10.220Z,46.40
2019-03-25T09:26:47.020Z,46.30
2019-03-25T09:28:24.662Z,45.80
2019-03-25T09:30:03.351Z,46.20
2019-03-25T09:31:38.838Z,45.90
2019-03-25T09:33:14.924Z,45.50
2019-03-25T09:34:51.312Z,44.90
2019-03-25T09:36:27.635Z,44.40
2019-03-25T09:38:03.866Z,43.60
2019-03-25T09:39:40.052Z,43.70
2019-03-25T09:41:16.277Z,44.00
2019-03-25T09:42:52.444Z,43.70
2019-03-25T09:44:29.880Z,43.20
2019-03-25T09:46:06.182Z,42.60
2019-03-25T09:47:42.512Z,42.30
2019-03-25T09:49:18.739Z,42.40
2019-03-25T09:50:55.053Z,42.50
2019-03-25T09:52:38.369Z,42.60
2019-03-25T09:54:09.332Z,42.00
2019-03-25T09:55:45.648Z,41.80
2019-03-25T09:57:21.895Z,42.50
2019-03-25T09:58:57.807Z,42.30
2019-03-25T10:00:34.299Z,42.10
2019-03-25T10:02:10.609Z,40.90
2019-03-25T10:03:46.743Z,40.60
2019-03-25T10:05:23.016Z,40.40
2019-03-25T10:06:59.540Z,40.30
2019-03-25T10:08:35.863Z,40.20
2019-03-25T10:10:12.370Z,40.90
2019-03-25T10:11:48.669Z,41.00
2019-03-25T10:13:24.838Z,41.30
2019-03-25T10:15:01.070Z,41.30
2019-03-25T10:16:37.392Z,41.20
2019-03-25T10:18:13.699Z,41.70
2019-03-25T10:19:49.803Z,42.90
2019-03-25T10:21:25.903Z,43.00
2019-03-25T10:23:02.117Z,43.90
2019-03-25T10:24:38.356Z,45.40
2019-03-25T10:26:14.357Z,45.10
2019-03-25T10:27:50.610Z,45.00
2019-03-25T10:29:26.752Z,43.90
2019-03-25T10:31:02.981Z,42.10
2019-03-25T10:32:39.183Z,42.10
2019-03-25T10:34:15.405Z,41.90
2019-03-25T10:35:51.713Z,41.40
2019-03-25T10:37:27.957Z,40.30
2019-03-25T10:39:06.887Z,40.70
2019-03-25T10:40:43.104Z,41.40
2019-03-25T10:42:19.336Z,42.70
2019-03-25T10:43:55.204Z,43.00
2019-03-25T10:45:31.445Z,44.20
2019-03-25T10:47:07.758Z,44.90
2019-03-25T10:48:43.920Z,45.90
2019-03-25T10:50:20.295Z,49.80
2019-03-25T10:51:56.538Z,54.20
2019-03-25T10:53:32.708Z,56.40
2019-03-25T10:55:09.405Z,62.00
2019-03-25T10:56:49.242Z,63.40
2019-03-25T10:58:23.630Z,66.10
2019-03-25T11:00:00.854Z,69.40
2019-03-25T11:01:37.078Z,72.10
2019-03-25T11:03:13.457Z,74.00
2019-03-25T11:04:49.614Z,74.50
2019-03-25T11:06:25.708Z,75.70
2019-03-25T11:08:01.940Z,75.90
2019-03-25T11:09:38.168Z,76.90
2019-03-25T11:11:14.473Z,78.00
2019-03-25T11:12:50.777Z,79.80
2019-03-25T11:14:26.954Z,80.40
2019-03-25T11:16:03.350Z,80.60
2019-03-25T11:17:39.597Z,80.60
2019-03-25T11:19:15.792Z,80.90
2019-03-25T11:20:52.028Z,79.60
2019-03-25T11:22:30.103Z,81.20
2019-03-25T11:24:06.220Z,80.40
2019-03-25T11:25:42.522Z,80.10
2019-03-25T11:27:18.831Z,79.00
2019-03-25T11:28:54.621Z,75.80
2019-03-25T11:30:54.947Z,75.50
2019-03-25T11:32:31.078Z,75.90
2019-03-25T11:34:07.487Z,75.40
2019-03-25T11:35:43.638Z,74.30
2019-03-25T11:37:19.884Z,74.10
2019-03-25T11:38:56.186Z,71.30
2019-03-25T11:40:32.432Z,70.00
2019-03-25T11:42:10.276Z,68.60
2019-03-25T11:43:46.737Z,69.00
2019-03-25T11:45:24.244Z,69.10
2019-03-25T11:47:00.113Z,65.90
2019-03-25T11:48:36.429Z,64.10
2019-03-25T11:50:13.509Z,61.70
2019-03-25T11:51:49.513Z,60.20
2019-03-25T11:53:25.705Z,59.70
2019-03-25T11:55:01.714Z,58.90
2019-03-25T11:56:37.948Z,58.00
2019-03-25T11:58:14.176Z,58.40
2019-03-25T11:59:50.387Z,55.90
2019-03-25T12:01:26.761Z,56.30
2019-03-25T12:03:03.168Z,55.60
2019-03-25T12:04:39.417Z,55.60
2019-03-25T12:06:15.743Z,56.20
2019-03-25T12:07:51.906Z,56.80
2019-03-25T12:09:28.079Z,54.70
2019-03-25T12:11:04.389Z,54.50
2019-03-25T12:12:40.560Z,53.20
2019-03-25T12:14:16.763Z,51.90
2019-03-25T12:15:53.077Z,50.80
2019-03-25T12:17:29.285Z,49.80
2019-03-25T12:19:05.895Z,48.60
2019-03-25T12:20:42.159Z,47.40
2019-03-25T12:22:18.405Z,48.70
2019-03-25T12:23:54.551Z,48.80
2019-03-25T12:25:30.797Z,49.90
2019-03-25T12:27:07.102Z,50.00
2019-03-25T12:28:43.342Z,49.80
2019-03-25T12:30:19.751Z,49.30
2019-03-25T12:31:56.168Z,49.40
2019-03-25T12:33:32.410Z,50.40
2019-03-25T12:35:09.209Z,51.30
2019-03-25T12:36:45.420Z,51.10
2019-03-25T12:38:21.752Z,50.70
2019-03-25T12:39:58.092Z,50.60
2019-03-25T12:41:34.328Z,49.80
2019-03-25T12:43:10.632Z,47.30
2019-03-25T12:44:46.942Z,44.90
2019-03-25T12:46:23.183Z,43.30
2019-03-25T12:47:59.483Z,43.70
2019-03-25T12:49:35.763Z,43.50
2019-03-25T12:51:11.931Z,45.10
2019-03-25T12:52:49.436Z,45.40
2019-03-25T12:54:25.611Z,45.30
2019-03-25T12:56:01.955Z,43.60
2019-03-25T12:57:38.187Z,43.60
2019-03-25T12:59:14.356Z,43.10
2019-03-25T13:00:50.690Z,42.80
2019-03-25T13:02:26.921Z,43.30
2019-03-25T13:04:03.079Z,42.20
2019-03-25T13:05:39.890Z,42.10
2019-03-25T13:07:16.193Z,43.40
2019-03-25T13:08:52.305Z,42.50
2019-03-25T13:10:28.464Z,42.90
2019-03-25T13:12:04.847Z,41.70
2019-03-25T13:13:41.185Z,41.20
2019-03-25T13:15:17.419Z,39.60
2019-03-25T13:16:53.359Z,38.70
2019-03-25T13:18:29.532Z,38.70
2019-03-25T13:20:07.548Z,38.70
2019-03-25T13:21:43.544Z,41.40
2019-03-25T13:23:19.432Z,43.10
2019-03-25T13:24:55.675Z,44.60
2019-03-25T13:26:31.945Z,45.30
2019-03-25T13:28:08.187Z,44.60
2019-03-25T13:29:52.455Z,45.40
2019-03-25T13:31:22.285Z,45.20
2019-03-25T13:32:58.597Z,46.80
2019-03-25T13:34:34.841Z,46.90
2019-03-25T13:36:11.089Z,47.60
2019-03-25T13:37:47.233Z,47.70
2019-03-25T13:39:23.402Z,46.60
2019-03-25T13:40:59.644Z,45.80
2019-03-25T13:42:35.997Z,46.10
2019-03-25T13:44:12.157Z,46.10
2019-03-25T13:45:48.166Z,45.90
2019-03-25T13:47:24.421Z,46.80
2019-03-25T13:49:00.628Z,47.10
2019-03-25T13:50:36.863Z,47.20
2019-03-25T13:52:13.045Z,47.20
2019-03-25T13:53:49.279Z,47.50
2019-03-25T13:55:26.738Z,46.70
2019-03-25T13:57:03.247Z,46.70
2019-03-25T13:58:39.404Z,47.10
2019-03-25T14:00:16.313Z,47.90
2019-03-25T14:01:52.113Z,46.80
2019-03-25T14:03:28.419Z,47.90
2019-03-25T14:05:05.862Z,48.00
2019-03-25T14:06:41.929Z,47.70
2019-03-25T14:08:18.002Z,47.40
2019-03-25T14:09:54.246Z,47.20
2019-03-25T14:11:30.436Z,47.50
2019-03-25T14:13:06.746Z,47.90
2019-03-25T14:14:44.178Z,48.30
2019-03-25T14:16:20.418Z,49.50
2019-03-25T14:17:56.514Z,50.40
2019-03-25T14:19:32.750Z,50.90
2019-03-25T14:21:08.988Z,51.40
2019-03-25T14:22:45.279Z,52.40
2019-03-25T14:24:21.445Z,53.70
2019-03-25T14:25:57.600Z,53.80
2019-03-25T14:27:33.760Z,53.60
2019-03-25T14:29:10.101Z,54.40
2019-03-25T14:30:46.398Z,55.30
2019-03-25T14:32:22.571Z,55.70
2019-03-25T14:33:58.833Z,55.70
2019-03-25T14:35:35.133Z,57.20
2019-03-25T14:37:11.394Z,57.00
2019-03-25T14:38:47.561Z,56.90
2019-03-25T14:40:25.557Z,57.30
2019-03-25T14:42:01.966Z,55.50
2019-03-25T14:43:38.332Z,54.80
2019-03-25T14:45:25.875Z,55.00
2019-03-25T14:46:52.755Z,54.20
2019-03-25T14:48:28.910Z,54.10
2019-03-25T14:50:07.231Z,53.50
2019-03-25T14:51:43.421Z,53.90
2019-03-25T14:53:19.509Z,54.20
2019-03-25T14:54:55.682Z,55.30
2019-03-25T14:56:31.842Z,56.10
2019-03-25T14:58:08.133Z,56.90
2019-03-25T14:59:44.361Z,58.30
2019-03-25T15:01:20.677Z,60.30
2019-03-25T15:02:56.994Z,60.50
2019-03-25T15:04:33.293Z,61.40
2019-03-25T15:06:10.854Z,62.10
2019-03-25T15:07:47.164Z,63.20
2019-03-25T15:09:23.324Z,64.90
2019-03-25T15:10:59.554Z,66.50
2019-03-25T15:12:35.859Z,66.00
2019-03-25T15:14:12.099Z,66.40
2019-03-25T15:15:48.369Z,66.10
2019-03-25T15:17:24.610Z,65.00
2019-03-25T15:19:00.875Z,65.00
2019-03-25T15:20:36.993Z,64.90
2019-03-25T15:22:13.231Z,64.80
2019-03-25T15:23:49.529Z,65.20
2019-03-25T15:25:25.780Z,64.00
2019-03-25T15:27:01.934Z,63.40
2019-03-25T15:28:39.546Z,62.40
2019-03-25T15:30:16.581Z,63.00
2019-03-25T15:31:52.434Z,61.40
2019-03-25T15:33:28.663Z,60.70
2019-03-25T15:35:09.645Z,61.20
2019-03-25T15:36:45.711Z,61.10
2019-03-25T15:38:22.003Z,61.50
2019-03-25T15:39:58.321Z,61.40
2019-03-25T15:41:34.536Z,61.40
2019-03-25T15:43:10.735Z,61.80
2019-03-25T15:44:46.731Z,61.30
2019-03-25T15:46:22.860Z,62.50
2019-03-25T15:47:58.989Z,62.80
2019-03-25T15:49:35.220Z,63.00
2019-03-25T15:51:11.487Z,62.10
2019-03-25T15:52:47.680Z,62.30
2019-03-25T15:54:24.011Z,63.80
2019-03-25T15:56:02.647Z,64.00
2019-03-25T15:57:39.849Z,64.00
2019-03-25T15:59:16.430Z,64.20
2019-03-25T16:00:52.659Z,64.70
2019-03-25T16:02:28.862Z,65.60
2019-03-25T16:04:05.100Z,66.40
2019-03-25T16:05:41.232Z,66.80
2019-03-25T16:07:17.431Z,67.20
2019-03-25T16:08:53.657Z,67.40
2019-03-25T16:10:29.688Z,67.50
2019-03-25T16:12:05.977Z,67.60
2019-03-25T16:13:42.306Z,67.80
2019-03-25T16:15:43.411Z,67.90
2019-03-25T16:17:20.829Z,68.00
2019-03-25T16:18:57.136Z,68.50
2019-03-25T16:20:33.306Z,68.20
2019-03-25T16:22:09.795Z,68.30
2019-03-25T16:23:46.114Z,67.70
2019-03-25T16:25:29.014Z,67.60
2019-03-25T16:27:05.218Z,67.10
2019-03-25T16:28:41.455Z,66.70
2019-03-25T16:30:18.005Z,66.60
2019-03-25T16:31:54.320Z,66.10
2019-03-25T16:33:30.494Z,66.20
2019-03-25T16:35:07.897Z,66.10
2019-03-25T16:36:44.122Z,66.00
2019-03-25T16:38:20.377Z,66.00
2019-03-25T16:39:56.588Z,66.00
2019-03-25T16:41:32.831Z,65.90
2019-03-25T16:43:09.063Z,65.90
2019-03-25T16:44:45.245Z,66.10
2019-03-25T16:46:21.574Z,66.50
2019-03-25T16:47:57.735Z,66.50
2019-03-25T16:49:39.242Z,66.90
2019-03-25T16:51:16.630Z,68.40
2019-03-25T16:52:52.848Z,70.20
2019-03-25T16:54:29.211Z,71.40
2019-03-25T16:56:05.521Z,73.80
2019-03-25T16:57:41.727Z,73.40
2019-03-25T16:59:20.245Z,74.60
2019-03-25T17:00:56.549Z,76.30
2019-03-25T17:02:32.810Z,76.90
2019-03-25T17:04:09.141Z,77.30
2019-03-25T17:05:45.419Z,79.00
2019-03-25T17:07:21.584Z,78.80
2019-03-25T17:08:57.771Z,79.00
2019-03-25T17:10:33.932Z,80.30
2019-03-25T17:12:10.231Z,80.00
2019-03-25T17:13:46.454Z,80.60
2019-03-25T17:15:22.764Z,80.50
2019-03-25T17:16:58.939Z,81.30
2019-03-25T17:18:35.113Z,81.90
2019-03-25T17:20:11.508Z,82.30
2019-03-25T17:21:57.730Z,82.50
2019-03-25T17:23:25.588Z,82.50
2019-03-25T17:25:03.014Z,82.10
2019-03-25T17:26:42.532Z,82.30
2019-03-25T17:28:17.244Z,82.50
2019-03-25T17:29:53.636Z,83.00
2019-03-25T17:31:29.628Z,82.80
2019-03-25T17:33:05.920Z,83.50
2019-03-25T17:34:42.080Z,83.60
2019-03-25T17:36:18.173Z,84.00
2019-03-25T17:37:54.407Z,84.10
2019-03-25T17:39:30.514Z,84.40
2019-03-25T17:41:06.434Z,84.90
2019-03-25T17:42:42.578Z,84.80
2019-03-25T17:44:18.745Z,85.50
2019-03-25T17:45:54.984Z,85.30
2019-03-25T17:47:31.081Z,86.30
2019-03-25T17:49:07.386Z,86.70
2019-03-25T17:50:43.695Z,86.80
2019-03-25T17:52:19.804Z,87.50
2019-03-25T17:53:56.318Z,88.80
2019-03-25T17:55:32.662Z,88.70
2019-03-25T17:57:08.962Z,88.90
2019-03-25T17:58:45.131Z,88.70
2019-03-25T18:00:49.800Z,89.00
2019-03-25T18:02:26.132Z,89.50
2019-03-25T18:04:02.474Z,90.00
2019-03-25T18:05:38.646Z,89.70
2019-03-25T18:07:14.809Z,90.00
2019-03-25T18:08:51.166Z,90.20
2019-03-25T18:10:27.471Z,90.10
2019-03-25T18:12:03.649Z,90.10
2019-03-25T18:13:39.846Z,90.60
2019-03-25T18:15:16.171Z,91.00
2019-03-25T18:16:52.420Z,90.70
2019-03-25T18:18:28.631Z,91.10
2019-03-25T18:20:18.230Z,90.60
2019-03-25T18:21:45.557Z,90.70
2019-03-25T18:23:21.811Z,91.20
2019-03-25T18:24:57.979Z,90.80
2019-03-25T18:26:34.128Z,90.80
2019-03-25T18:28:10.381Z,91.00
2019-03-25T18:29:46.668Z,90.90
2019-03-25T18:31:23.027Z,91.00
2019-03-25T18:32:59.331Z,90.90
2019-03-25T18:34:35.771Z,91.00
2019-03-25T18:36:12.044Z,91.00
2019-03-25T18:37:48.156Z,91.10
2019-03-25T18:39:24.324Z,91.10
2019-03-25T18:41:00.389Z,91.30
2019-03-25T18:42:36.754Z,91.20
2019-03-25T18:44:12.992Z,91.10
2019-03-25T18:45:49.303Z,91.10
2019-03-25T18:47:25.686Z,91.20
2019-03-25T18:49:02.198Z,91.20
2019-03-25T18:50:38.431Z,91.30
2019-03-25T18:52:14.744Z,91.60
2019-03-25T18:53:51.046Z,91.20
2019-03-25T18:55:27.292Z,91.10
2019-03-25T18:57:03.501Z,91.10
2019-03-25T18:58:39.799Z,91.10
2019-03-25T19:00:36.311Z,91.00
2019-03-25T19:02:12.587Z,91.00
2019-03-25T19:03:48.824Z,90.90
2019-03-25T19:05:25.065Z,90.80
2019-03-25T19:07:01.564Z,90.70
2019-03-25T19:08:38.866Z,90.60
2019-03-25T19:10:19.566Z,90.50
2019-03-25T19:11:55.811Z,90.40
2019-03-25T19:13:32.040Z,90.50
2019-03-25T19:15:08.643Z,90.40
2019-03-25T19:16:44.880Z,90.50
2019-03-25T19:18:21.054Z,90.70
2019-03-25T19:19:57.146Z,90.70
2019-03-25T19:21:33.215Z,90.70
2019-03-25T19:23:09.336Z,91.00
2019-03-25T19:24:45.507Z,90.70
2019-03-25T19:26:21.745Z,90.60
2019-03-25T19:27:57.981Z,90.70
2019-03-25T19:29:34.144Z,90.60
2019-03-25T19:31:10.401Z,90.60
2019-03-25T19:32:46.646Z,90.60
2019-03-25T19:34:22.819Z,90.90
2019-03-25T19:35:58.947Z,90.70
2019-03-25T19:37:35.110Z,90.70
2019-03-25T19:39:11.333Z,90.70
2019-03-25T19:40:47.451Z,90.80
2019-03-25T19:42:23.642Z,90.70
2019-03-25T19:44:01.041Z,90.90
2019-03-25T19:45:37.243Z,91.00
2019-03-25T19:47:13.556Z,90.80
2019-03-25T19:48:49.655Z,91.10
2019-03-25T19:50:25.930Z,91.30
2019-03-25T19:52:02.422Z,91.60
2019-03-25T19:53:38.748Z,91.90
2019-03-25T19:55:15.045Z,92.10
2019-03-25T19:56:51.120Z,92.40
2019-03-25T19:58:27.361Z,92.50
2019-03-25T20:00:04.875Z,92.70
2019-03-25T20:01:41.083Z,92.90
2019-03-25T20:03:17.430Z,92.90
2019-03-25T20:04:53.648Z,93.20
2019-03-25T20:06:29.917Z,93.50
2019-03-25T20:08:06.270Z,93.90
2019-03-25T20:09:42.675Z,94.30
2019-03-25T20:11:18.948Z,94.30
2019-03-25T20:12:55.053Z,94.40
2019-03-25T20:14:31.182Z,94.80
2019-03-25T20:16:07.546Z,94.90
2019-03-25T20:17:43.754Z,94.90
2019-03-25T20:19:19.903Z,95.20
2019-03-25T20:20:56.261Z,95.20
2019-03-25T20:22:32.460Z,95.60
2019-03-25T20:24:08.635Z,95.80
2019-03-25T20:25:44.951Z,96.00
2019-03-25T20:27:21.207Z,96.40
2019-03-25T20:28:57.590Z,96.40
2019-03-25T20:30:33.926Z,96.30
2019-03-25T20:32:10.382Z,96.30
2019-03-25T20:33:46.611Z,96.50
2019-03-25T20:35:22.889Z,96.80
2019-03-25T20:36:59.133Z,96.80
2019-03-25T20:38:35.512Z,96.80
2019-03-25T20:40:12.010Z,96.80
2019-03-25T20:41:48.215Z,96.90
2019-03-25T20:43:24.586Z,97.10